Time;durP1;ratioP1;P1;durP2;ratioP2;P2;SDS_P1;SDS_P2;PMS_P1;PMS_P2;Temp;Humidity;BMP_temperature;BMP_pressure;BME280_temperature;BME280_humidity;BME280_pressure;Samples;Min_cycle;Max_cycle;Signal;HPM_P1;HPM_P2
2021/12/06 00:00:24;;;;;;;2.33;1.10;;;;;;;;;;4967262;28;20054;-61
2021/12/06 00:02:51;;;;;;;2.10;1.10;;;;;;;;;;4967858;28;20090;-60
2021/12/06 00:05:18;;;;;;;3.17;1.23;;;;;;;;;;4967521;28;20027;-59
2021/12/06 00:07:45;;;;;;;2.10;0.90;;;;;;;;;;4972008;28;20572;-59
2021/12/06 00:10:12;;;;;;;3.80;1.13;;;;;;;;;;4972883;28;20034;-59
2021/12/06 00:12:39;;;;;;;2.50;1.20;;;;;;;;;;4972668;28;20541;-59
2021/12/06 00:15:06;;;;;;;2.47;1.10;;;;;;;;;;4975419;28;20034;-59
2021/12/06 00:17:33;;;;;;;2.63;0.90;;;;;;;;;;4976165;28;20019;-59
2021/12/06 00:20:00;;;;;;;2.40;1.10;;;;;;;;;;4971543;28;20034;-59
2021/12/06 00:22:27;;;;;;;4.20;0.87;;;;;;;;;;4970780;28;20030;-59
2021/12/06 00:24:55;;;;;;;1.83;0.90;;;;;;;;;;4971288;28;20108;-59
2021/12/06 00:27:22;;;;;;;2.77;0.97;;;;;;;;;;4971306;28;20019;-59
2021/12/06 00:29:49;;;;;;;1.63;1.00;;;;;;;;;;4974782;28;20089;-59
2021/12/06 00:32:15;;;;;;;3.90;1.37;;;;;;;;;;4975720;28;20039;-59
2021/12/06 00:34:42;;;;;;;2.80;1.10;;;;;;;;;;4976029;28;20479;-59
2021/12/06 00:37:20;;;;;;;2.07;1.13;;;;;;;;;;4976117;28;20022;-59
2021/12/06 00:39:51;;;;;;;3.50;1.17;;;;;;;;;;4975748;28;20098;-59
2021/12/06 00:42:19;;;;;;;4.90;1.40;;;;;;;;;;4971385;28;20049;-59
2021/12/06 00:44:45;;;;;;;5.13;1.20;;;;;;;;;;4970736;28;20026;-59
2021/12/06 00:47:12;;;;;;;2.47;1.60;;;;;;;;;;4970550;28;20073;-57
2021/12/06 00:49:39;;;;;;;6.90;1.53;;;;;;;;;;4970178;28;20454;-57
2021/12/06 00:52:06;;;;;;;6.83;1.23;;;;;;;;;;4974358;28;20026;-57
2021/12/06 00:54:35;;;;;;;3.03;1.17;;;;;;;;;;4975764;28;20479;-57
2021/12/06 00:57:04;;;;;;;10.83;2.10;;;;;;;;;;4975302;28;20039;-57
2021/12/06 00:59:30;;;;;;;6.10;1.57;;;;;;;;;;4975800;28;20485;-57
2021/12/06 01:01:57;;;;;;;4.20;1.67;;;;;;;;;;4975526;28;20054;-57
2021/12/06 01:04:24;;;;;;;14.73;3.80;;;;;;;;;;4971021;28;20058;-57
2021/12/06 01:06:51;;;;;;;5.40;2.10;;;;;;;;;;4970522;28;20030;-60
2021/12/06 01:09:18;;;;;;;14.90;2.83;;;;;;;;;;4969444;28;20072;-58
2021/12/06 01:11:44;;;;;;;11.60;1.63;;;;;;;;;;4970307;28;20643;-59
2021/12/06 01:14:11;;;;;;;6.63;2.10;;;;;;;;;;4973090;28;20027;-60
2021/12/06 01:16:38;;;;;;;6.83;2.33;;;;;;;;;;4975461;28;20419;-59
2021/12/06 01:19:05;;;;;;;5.70;2.27;;;;;;;;;;4974999;28;20054;-58
2021/12/06 01:22:06;;;;;;;6.63;3.40;;;;;;;;;;4974673;28;20029;-58
2021/12/06 01:24:26;;;;;;;8.13;3.60;;;;;;;;;;4974856;28;20038;-58
2021/12/06 01:27:24;;;;;;;9.20;3.07;;;;;;;;;;4970170;28;20601;-58
2021/12/06 01:40:27;;;;;;;13.20;6.10;;;;;;;;;;4974954;28;20493;-57
2021/12/06 01:42:54;;;;;;;14.77;6.37;;;;;;;;;;4974815;28;20030;-60
2021/12/06 01:45:21;;;;;;;14.63;6.70;;;;;;;;;;4974684;28;20030;-60
2021/12/06 01:47:47;;;;;;;13.13;5.40;;;;;;;;;;4972804;28;20027;-60
2021/12/06 01:50:19;;;;;;;12.27;4.20;;;;;;;;;;4969464;28;20031;-60
2021/12/06 01:52:49;;;;;;;6.90;3.87;;;;;;;;;;4969687;28;20023;-60
2021/12/06 01:55:20;;;;;;;10.90;3.97;;;;;;;;;;4969153;28;20026;-60
2021/12/06 01:57:48;;;;;;;6.60;3.67;;;;;;;;;;4970267;28;20023;-60
2021/12/06 02:00:17;;;;;;;5.77;2.60;;;;;;;;;;4974506;28;20385;-57
2021/12/06 02:02:44;;;;;;;10.83;3.17;;;;;;;;;;4974385;28;20089;-57
2021/12/06 02:05:11;;;;;;;4.23;2.23;;;;;;;;;;4973710;28;20737;-58
2021/12/06 02:07:38;;;;;;;5.67;3.57;;;;;;;;;;4974402;28;20034;-58
2021/12/06 02:10:06;;;;;;;16.33;2.60;;;;;;;;;;4973060;28;20463;-58
2021/12/06 02:12:34;;;;;;;10.43;2.90;;;;;;;;;;4968970;28;20069;-58
2021/12/06 02:15:14;;;;;;;4.90;2.90;;;;;;;;;;4969105;28;20394;-58
2021/12/06 02:17:51;;;;;;;7.87;2.37;;;;;;;;;;4969247;28;20038;-58
2021/12/06 02:20:25;;;;;;;3.67;2.07;;;;;;;;;;4970553;28;20027;-57
2021/12/06 02:22:52;;;;;;;4.30;2.13;;;;;;;;;;4974018;28;20404;-58
2021/12/06 02:25:20;;;;;;;10.03;2.83;;;;;;;;;;4973770;28;20406;-57
2021/12/06 02:27:47;;;;;;;9.50;2.40;;;;;;;;;;4973554;28;20478;-58
2021/12/06 02:30:15;;;;;;;12.37;3.40;;;;;;;;;;4973829;28;20035;-58
2021/12/06 02:32:42;;;;;;;6.80;2.83;;;;;;;;;;4972114;28;20479;-58
2021/12/06 02:35:13;;;;;;;8.40;2.43;;;;;;;;;;4968868;28;20026;-57
2021/12/06 02:37:40;;;;;;;8.73;2.60;;;;;;;;;;4967920;28;20549;-57
2021/12/06 02:40:12;;;;;;;7.17;3.13;;;;;;;;;;4968774;28;20602;-58
2021/12/06 02:42:39;;;;;;;5.63;2.80;;;;;;;;;;4969807;28;20023;-57
2021/12/06 02:45:08;;;;;;;10.80;3.10;;;;;;;;;;4973745;28;20121;-58
2021/12/06 02:47:35;;;;;;;6.40;2.50;;;;;;;;;;4973887;28;20030;-57
2021/12/06 02:50:07;;;;;;;6.20;3.00;;;;;;;;;;4973811;28;20031;-58
2021/12/06 02:52:34;;;;;;;14.90;3.80;;;;;;;;;;4973322;28;20030;-59
2021/12/06 02:55:07;;;;;;;9.47;3.10;;;;;;;;;;4971603;28;20027;-58
2021/12/06 02:57:37;;;;;;;6.53;2.47;;;;;;;;;;4968131;28;20062;-57
2021/12/06 03:00:07;;;;;;;5.20;2.70;;;;;;;;;;4968337;28;20037;-59
2021/12/06 03:02:34;;;;;;;5.80;2.57;;;;;;;;;;4968564;28;20031;-59
2021/12/06 03:05:01;;;;;;;4.90;2.20;;;;;;;;;;4969909;28;20029;-58
2021/12/06 03:07:29;;;;;;;5.53;2.73;;;;;;;;;;4973441;28;20030;-58
2021/12/06 03:09:56;;;;;;;7.80;3.30;;;;;;;;;;4953476;29;20403;-58
2021/12/06 03:12:27;;;;;;;6.77;2.83;;;;;;;;;;4954042;29;20442;-57
2021/12/06 03:14:56;;;;;;;12.40;3.60;;;;;;;;;;4953800;29;20034;-57
2021/12/06 03:17:24;;;;;;;5.90;2.67;;;;;;;;;;4959267;28;20098;-57
2021/12/06 03:19:51;;;;;;;4.77;2.67;;;;;;;;;;4968274;28;20054;-57
2021/12/06 03:22:18;;;;;;;5.23;2.77;;;;;;;;;;4967760;28;20031;-57
2021/12/06 03:24:45;;;;;;;4.07;2.80;;;;;;;;;;4967840;28;20085;-57
2021/12/06 03:27:13;;;;;;;8.60;3.10;;;;;;;;;;4969834;28;20374;-56
2021/12/06 03:29:40;;;;;;;8.67;2.50;;;;;;;;;;4972712;28;20031;-56
2021/12/06 03:32:07;;;;;;;5.33;3.20;;;;;;;;;;4972540;28;20034;-56
2021/12/06 03:34:34;;;;;;;5.53;2.83;;;;;;;;;;4973084;28;20161;-57
2021/12/06 03:37:02;;;;;;;6.47;3.13;;;;;;;;;;4973119;28;20026;-58
2021/12/06 03:39:30;;;;;;;8.43;2.80;;;;;;;;;;4971468;28;20489;-59
2021/12/06 03:41:59;;;;;;;5.83;2.30;;;;;;;;;;4967884;28;20471;-58
2021/12/06 03:44:26;;;;;;;6.33;2.77;;;;;;;;;;4968149;28;20106;-56
2021/12/06 03:46:56;;;;;;;6.50;2.90;;;;;;;;;;4968108;28;20390;-56
2021/12/06 03:49:23;;;;;;;5.77;2.77;;;;;;;;;;4970276;28;20038;-55
2021/12/06 03:51:50;;;;;;;7.87;2.90;;;;;;;;;;4976965;28;20537;-55
2021/12/06 03:54:20;;;;;;;5.73;2.80;;;;;;;;;;4976745;28;20494;-56
2021/12/06 03:56:47;;;;;;;6.00;2.53;;;;;;;;;;4976323;28;20450;-55
2021/12/06 03:59:14;;;;;;;5.63;2.60;;;;;;;;;;4976440;28;20141;-56
2021/12/06 04:01:41;;;;;;;6.90;2.20;;;;;;;;;;4975463;28;20057;-56
2021/12/06 04:04:09;;;;;;;6.90;3.00;;;;;;;;;;4971455;28;20392;-55
2021/12/06 04:06:36;;;;;;;10.80;3.13;;;;;;;;;;4971527;28;20034;-56
2021/12/06 04:09:04;;;;;;;6.53;3.63;;;;;;;;;;4971470;28;20385;-55
2021/12/06 04:11:32;;;;;;;5.57;2.70;;;;;;;;;;4971703;28;20026;-55
2021/12/06 04:13:58;;;;;;;7.47;3.23;;;;;;;;;;4976323;28;20486;-54
2021/12/06 04:16:25;;;;;;;3.97;2.40;;;;;;;;;;4976696;28;20022;-54
2021/12/06 04:18:52;;;;;;;8.53;3.00;;;;;;;;;;4976595;28;20077;-55
2021/12/06 04:21:20;;;;;;;4.20;2.33;;;;;;;;;;4976261;28;20026;-54
2021/12/06 04:23:47;;;;;;;4.43;2.53;;;;;;;;;;4975293;28;20076;-56
2021/12/06 04:26:14;;;;;;;7.10;2.97;;;;;;;;;;4971438;28;20030;-57
2021/12/06 04:28:47;;;;;;;6.13;3.23;;;;;;;;;;4971293;28;20438;-55
2021/12/06 04:31:14;;;;;;;10.97;3.10;;;;;;;;;;4970903;28;20074;-56
2021/12/06 04:33:41;;;;;;;7.50;2.80;;;;;;;;;;4971653;28;20109;-55
2021/12/06 04:36:08;;;;;;;9.40;3.20;;;;;;;;;;4976217;28;20499;-55
2021/12/06 04:38:35;;;;;;;9.60;3.50;;;;;;;;;;4975841;28;20026;-55
2021/12/06 04:41:03;;;;;;;8.00;3.77;;;;;;;;;;4975868;28;20027;-55
2021/12/06 04:43:29;;;;;;;4.83;2.90;;;;;;;;;;4975858;28;20026;-55
2021/12/06 04:45:56;;;;;;;7.37;3.30;;;;;;;;;;4974981;28;20873;-55
2021/12/06 04:48:23;;;;;;;6.10;3.10;;;;;;;;;;4971181;28;20488;-58
2021/12/06 04:50:51;;;;;;;5.37;2.87;;;;;;;;;;4971164;28;20030;-56
2021/12/06 04:53:19;;;;;;;4.97;2.80;;;;;;;;;;4970831;28;20034;-57
2021/12/06 04:55:50;;;;;;;7.87;3.60;;;;;;;;;;4970854;28;20128;-56
2021/12/06 04:58:22;;;;;;;13.03;2.70;;;;;;;;;;4975294;28;20023;-56
2021/12/06 05:00:57;;;;;;;6.87;3.20;;;;;;;;;;4974687;28;20022;-56
2021/12/06 05:03:24;;;;;;;6.40;2.88;;;;;;;;;;4975817;28;20030;-56
2021/12/06 05:05:52;;;;;;;6.73;3.27;;;;;;;;;;4975775;28;20022;-55
2021/12/06 05:08:25;;;;;;;5.00;2.67;;;;;;;;;;4974466;28;20031;-56
2021/12/06 05:10:52;;;;;;;5.03;2.93;;;;;;;;;;4970283;28;20085;-56
2021/12/06 05:13:20;;;;;;;8.57;3.30;;;;;;;;;;4970449;28;20030;-56
2021/12/06 05:15:47;;;;;;;4.07;2.60;;;;;;;;;;4970772;28;20593;-56
2021/12/06 05:18:14;;;;;;;4.43;2.83;;;;;;;;;;4970754;28;20031;-55
2021/12/06 05:20:41;;;;;;;8.23;2.90;;;;;;;;;;4975048;28;20034;-57
2021/12/06 05:23:08;;;;;;;5.70;2.50;;;;;;;;;;4975424;28;20081;-56
2021/12/06 05:25:35;;;;;;;7.20;2.73;;;;;;;;;;4974960;28;20037;-57
2021/12/06 05:28:02;;;;;;;5.43;2.57;;;;;;;;;;4975339;28;20030;-56
2021/12/06 05:30:29;;;;;;;7.93;2.80;;;;;;;;;;4974166;28;20106;-54
2021/12/06 05:33:00;;;;;;;11.13;2.97;;;;;;;;;;4970057;28;20378;-55
2021/12/06 05:35:27;;;;;;;5.67;3.13;;;;;;;;;;4968015;28;20382;-54
2021/12/06 05:37:55;;;;;;;8.80;3.40;;;;;;;;;;4966830;28;20109;-55
2021/12/06 05:40:23;;;;;;;6.90;3.40;;;;;;;;;;4967479;28;20037;-55
2021/12/06 05:42:50;;;;;;;4.30;2.60;;;;;;;;;;4972212;28;20030;-55
2021/12/06 05:45:18;;;;;;;5.53;3.30;;;;;;;;;;4972359;28;20185;-55
2021/12/06 05:47:45;;;;;;;5.33;2.73;;;;;;;;;;4972301;28;20027;-54
2021/12/06 05:50:12;;;;;;;5.53;3.37;;;;;;;;;;4972020;28;20023;-54
2021/12/06 05:52:39;;;;;;;11.97;3.83;;;;;;;;;;4971964;28;20027;-55
2021/12/06 05:55:06;;;;;;;7.97;3.23;;;;;;;;;;4968772;28;20113;-55
2021/12/06 05:57:33;;;;;;;5.37;3.03;;;;;;;;;;4968303;28;20081;-55
2021/12/06 06:00:00;;;;;;;5.13;2.30;;;;;;;;;;4968820;28;20027;-55
2021/12/06 06:02:27;;;;;;;4.23;2.37;;;;;;;;;;4968659;28;20150;-54
2021/12/06 06:04:54;;;;;;;5.90;2.30;;;;;;;;;;4973438;28;20026;-54
2021/12/06 06:07:21;;;;;;;4.77;2.57;;;;;;;;;;4973975;28;20382;-54
2021/12/06 06:09:47;;;;;;;4.83;3.27;;;;;;;;;;4973538;28;20031;-55
2021/12/06 06:12:14;;;;;;;9.20;3.17;;;;;;;;;;4973291;28;20019;-54
2021/12/06 06:14:41;;;;;;;4.33;2.53;;;;;;;;;;4973449;28;20065;-54
2021/12/06 06:17:11;;;;;;;4.43;2.83;;;;;;;;;;4968393;28;20026;-54
2021/12/06 06:19:39;;;;;;;6.83;2.50;;;;;;;;;;4968150;28;20031;-55
2021/12/06 06:22:06;;;;;;;5.83;3.20;;;;;;;;;;4968189;28;20026;-55
2021/12/06 06:24:33;;;;;;;5.20;3.00;;;;;;;;;;4968300;28;20025;-55
2021/12/06 06:26:59;;;;;;;6.60;2.63;;;;;;;;;;4972993;28;20421;-54
2021/12/06 06:29:26;;;;;;;12.67;3.23;;;;;;;;;;4972640;28;20098;-55
2021/12/06 06:31:53;;;;;;;6.73;3.50;;;;;;;;;;4973344;28;20037;-54
2021/12/06 06:34:20;;;;;;;5.73;3.57;;;;;;;;;;4973154;28;20023;-54
2021/12/06 06:36:47;;;;;;;5.13;3.40;;;;;;;;;;4973176;28;20026;-54
2021/12/06 06:39:14;;;;;;;4.40;2.60;;;;;;;;;;4967907;28;20022;-55
2021/12/06 06:41:40;;;;;;;4.40;2.80;;;;;;;;;;4967941;28;20826;-54
2021/12/06 06:44:07;;;;;;;4.47;2.60;;;;;;;;;;4967620;28;20471;-55
2021/12/06 06:46:34;;;;;;;4.97;2.73;;;;;;;;;;4967948;28;20033;-54
2021/12/06 06:49:01;;;;;;;8.30;3.07;;;;;;;;;;4972367;28;20497;-54
2021/12/06 06:51:28;;;;;;;5.57;3.13;;;;;;;;;;4973732;28;20034;-55
2021/12/06 06:53:55;;;;;;;7.83;2.83;;;;;;;;;;4973747;28;20027;-54
2021/12/06 06:56:22;;;;;;;5.33;3.00;;;;;;;;;;4973511;28;20042;-54
2021/12/06 06:58:50;;;;;;;4.63;2.80;;;;;;;;;;4973441;28;20030;-54
2021/12/06 07:01:17;;;;;;;5.37;2.67;;;;;;;;;;4968787;28;20518;-54
2021/12/06 07:03:44;;;;;;;4.70;2.70;;;;;;;;;;4968452;28;20031;-54
2021/12/06 07:06:11;;;;;;;6.27;3.20;;;;;;;;;;4968442;28;20054;-54
2021/12/06 07:08:38;;;;;;;5.10;2.93;;;;;;;;;;4968389;28;20034;-54
2021/12/06 07:11:06;;;;;;;8.33;3.20;;;;;;;;;;4972397;28;20030;-55
2021/12/06 07:13:37;;;;;;;4.97;3.10;;;;;;;;;;4973400;28;20065;-54
2021/12/06 07:16:04;;;;;;;7.63;3.30;;;;;;;;;;4973551;28;20053;-54
2021/12/06 07:18:31;;;;;;;6.23;3.10;;;;;;;;;;4973499;28;20027;-54
2021/12/06 07:20:58;;;;;;;6.00;3.13;;;;;;;;;;4973597;28;20415;-54
2021/12/06 07:23:24;;;;;;;4.33;2.83;;;;;;;;;;4968360;28;20109;-55
2021/12/06 07:25:51;;;;;;;6.57;3.83;;;;;;;;;;4968408;28;20027;-54
2021/12/06 07:28:18;;;;;;;5.37;2.73;;;;;;;;;;4967879;28;20035;-54
2021/12/06 07:30:45;;;;;;;5.43;2.80;;;;;;;;;;4967659;28;20043;-54
2021/12/06 07:33:11;;;;;;;8.53;2.93;;;;;;;;;;4972048;28;20030;-54
2021/12/06 07:35:38;;;;;;;5.20;3.13;;;;;;;;;;4973357;28;20470;-54
2021/12/06 07:38:07;;;;;;;5.60;3.10;;;;;;;;;;4973591;28;20019;-54
2021/12/06 07:40:34;;;;;;;5.23;2.93;;;;;;;;;;4972811;28;20031;-54
2021/12/06 07:43:01;;;;;;;6.20;3.50;;;;;;;;;;4973111;28;20089;-55
2021/12/06 07:45:28;;;;;;;5.00;2.90;;;;;;;;;;4968484;28;20034;-54
2021/12/06 07:47:55;;;;;;;9.50;2.70;;;;;;;;;;4967841;28;20895;-54
2021/12/06 07:50:22;;;;;;;7.60;3.10;;;;;;;;;;4968084;28;20034;-54
2021/12/06 07:52:52;;;;;;;4.30;2.53;;;;;;;;;;4967833;28;20031;-54
2021/12/06 07:55:20;;;;;;;5.60;2.40;;;;;;;;;;4971411;28;20394;-54
2021/12/06 07:57:47;;;;;;;5.60;3.40;;;;;;;;;;4973207;28;20023;-54
2021/12/06 08:00:18;;;;;;;6.13;3.67;;;;;;;;;;4972664;28;20409;-54
2021/12/06 08:02:44;;;;;;;5.47;3.10;;;;;;;;;;4973109;28;20130;-54
2021/12/06 08:05:30;;;;;;;4.90;2.90;;;;;;;;;;4972928;28;20106;-54
2021/12/06 08:08:02;;;;;;;5.70;3.30;;;;;;;;;;4967938;28;20506;-54
2021/12/06 08:10:29;;;;;;;4.57;3.00;;;;;;;;;;4967502;28;20097;-55
2021/12/06 08:12:56;;;;;;;12.00;4.17;;;;;;;;;;4967545;28;20033;-55
2021/12/06 08:15:22;;;;;;;5.87;3.70;;;;;;;;;;4967723;28;20053;-55
2021/12/06 08:17:49;;;;;;;6.60;3.80;;;;;;;;;;4972195;28;20097;-54
2021/12/06 08:20:16;;;;;;;8.07;3.67;;;;;;;;;;4973107;28;20074;-54
2021/12/06 08:22:43;;;;;;;4.20;2.60;;;;;;;;;;4972901;28;20034;-54
2021/12/06 08:25:11;;;;;;;5.13;3.40;;;;;;;;;;4972805;28;20026;-54
2021/12/06 08:27:38;;;;;;;7.57;4.20;;;;;;;;;;4972966;28;20031;-54
2021/12/06 08:30:05;;;;;;;4.33;2.57;;;;;;;;;;4967934;28;20478;-54
2021/12/06 08:32:32;;;;;;;5.40;3.30;;;;;;;;;;4967566;28;20356;-54
2021/12/06 08:34:59;;;;;;;4.57;2.37;;;;;;;;;;4967709;28;20023;-54
2021/12/06 08:37:26;;;;;;;5.47;3.50;;;;;;;;;;4970361;28;20030;-54
2021/12/06 08:39:53;;;;;;;7.07;3.63;;;;;;;;;;4974870;28;20528;-54
2021/12/06 08:42:20;;;;;;;6.00;3.13;;;;;;;;;;4975686;28;20273;-54
2021/12/06 08:44:47;;;;;;;5.63;2.77;;;;;;;;;;4976063;28;20031;-54
2021/12/06 08:47:15;;;;;;;4.27;2.50;;;;;;;;;;4976321;28;20319;-54
2021/12/06 08:49:42;;;;;;;6.53;3.60;;;;;;;;;;4975860;28;20299;-54
2021/12/06 08:52:09;;;;;;;5.83;2.70;;;;;;;;;;4971747;28;20265;-54
2021/12/06 08:54:35;;;;;;;5.77;2.77;;;;;;;;;;4970734;28;20435;-54
2021/12/06 08:57:04;;;;;;;6.80;3.10;;;;;;;;;;4969851;28;20035;-54
2021/12/06 08:59:30;;;;;;;5.30;3.30;;;;;;;;;;4970668;28;20174;-54
2021/12/06 09:01:58;;;;;;;5.80;3.53;;;;;;;;;;4974282;28;20347;-54
2021/12/06 09:04:29;;;;;;;7.43;3.33;;;;;;;;;;4975879;28;20034;-54
2021/12/06 09:06:58;;;;;;;7.20;4.00;;;;;;;;;;4975896;28;20265;-54
2021/12/06 09:09:27;;;;;;;6.47;4.13;;;;;;;;;;4975517;28;20346;-54
2021/12/06 09:11:54;;;;;;;7.70;4.63;;;;;;;;;;4975075;28;20355;-55
2021/12/06 09:14:22;;;;;;;6.27;3.50;;;;;;;;;;4971210;28;20268;-54
2021/12/06 09:16:49;;;;;;;5.40;3.13;;;;;;;;;;4970320;28;20339;-54
2021/12/06 09:19:16;;;;;;;10.53;4.63;;;;;;;;;;4970290;28;20257;-54
2021/12/06 09:21:43;;;;;;;12.03;3.57;;;;;;;;;;4970224;28;20268;-54
2021/12/06 09:24:13;;;;;;;7.33;4.10;;;;;;;;;;4973740;28;20248;-54
2021/12/06 09:26:40;;;;;;;4.83;3.47;;;;;;;;;;4975234;28;20640;-54
2021/12/06 09:29:07;;;;;;;8.13;4.00;;;;;;;;;;4975208;28;20411;-54
2021/12/06 09:31:34;;;;;;;7.50;3.47;;;;;;;;;;4975442;28;20283;-54
2021/12/06 09:34:01;;;;;;;7.10;4.33;;;;;;;;;;4975366;28;20260;-54
2021/12/06 09:36:28;;;;;;;6.73;3.77;;;;;;;;;;4971067;28;20751;-54
2021/12/06 09:38:55;;;;;;;5.07;3.23;;;;;;;;;;4970034;28;20311;-54
2021/12/06 09:41:25;;;;;;;7.23;3.53;;;;;;;;;;4969543;28;20256;-54
2021/12/06 09:43:54;;;;;;;5.40;3.27;;;;;;;;;;4969698;28;20269;-54
2021/12/06 09:46:21;;;;;;;6.10;3.77;;;;;;;;;;4973169;28;20280;-54
2021/12/06 09:48:48;;;;;;;5.70;3.40;;;;;;;;;;4974881;28;20339;-54
2021/12/06 09:51:17;;;;;;;6.40;3.93;;;;;;;;;;4974791;28;20272;-54
2021/12/06 09:53:45;;;;;;;7.27;3.63;;;;;;;;;;4974680;28;20292;-54
2021/12/06 09:56:14;;;;;;;5.37;3.17;;;;;;;;;;4974857;28;20265;-54
2021/12/06 09:58:42;;;;;;;8.27;3.53;;;;;;;;;;4970687;28;20307;-54
2021/12/06 10:01:14;;;;;;;5.83;3.30;;;;;;;;;;4969554;28;20663;-54
2021/12/06 10:03:44;;;;;;;4.80;3.03;;;;;;;;;;4969311;28;20292;-54
2021/12/06 10:06:11;;;;;;;5.20;2.93;;;;;;;;;;4969396;28;20269;-54
2021/12/06 10:08:39;;;;;;;5.13;2.83;;;;;;;;;;4972698;28;20300;-54
2021/12/06 10:11:09;;;;;;;6.00;3.30;;;;;;;;;;4974581;28;20284;-54
2021/12/06 10:13:36;;;;;;;5.17;2.93;;;;;;;;;;4974729;28;20774;-54
2021/12/06 10:16:04;;;;;;;5.97;3.70;;;;;;;;;;4974265;28;20751;-54
2021/12/06 10:18:31;;;;;;;5.10;3.00;;;;;;;;;;4974427;28;20260;-54
2021/12/06 10:20:57;;;;;;;6.63;3.93;;;;;;;;;;4969854;28;20253;-54
2021/12/06 10:23:24;;;;;;;10.17;4.23;;;;;;;;;;4968737;28;20269;-54
2021/12/06 10:25:52;;;;;;;6.13;3.73;;;;;;;;;;4969156;28;20292;-53
2021/12/06 10:28:20;;;;;;;5.33;3.40;;;;;;;;;;4969078;28;20292;-54
2021/12/06 10:30:56;;;;;;;4.97;3.20;;;;;;;;;;4972562;28;20260;-54
2021/12/06 10:33:26;;;;;;;4.30;2.90;;;;;;;;;;4974171;28;20339;-54
2021/12/06 10:35:56;;;;;;;5.20;2.97;;;;;;;;;;4973850;28;20260;-54
2021/12/06 10:38:28;;;;;;;5.17;2.80;;;;;;;;;;4973873;28;20261;-55
2021/12/06 10:41:03;;;;;;;5.40;2.70;;;;;;;;;;4954634;29;20286;-53
2021/12/06 10:43:31;;;;;;;5.67;3.53;;;;;;;;;;4949454;29;20280;-53
2021/12/06 10:45:58;;;;;;;5.27;3.23;;;;;;;;;;4949291;29;20316;-54
2021/12/06 10:48:29;;;;;;;5.50;3.17;;;;;;;;;;4949323;29;20308;-54
2021/12/06 10:50:59;;;;;;;7.17;3.70;;;;;;;;;;4949264;29;20262;-54
2021/12/06 10:53:38;;;;;;;5.60;3.30;;;;;;;;;;4954283;28;20258;-54
2021/12/06 10:56:16;;;;;;;6.13;3.07;;;;;;;;;;4960455;28;20264;-54
2021/12/06 10:58:43;;;;;;;5.77;3.40;;;;;;;;;;4973020;28;20344;-54
2021/12/06 11:01:14;;;;;;;6.20;3.70;;;;;;;;;;4973636;28;20264;-54
2021/12/06 11:03:50;;;;;;;9.37;4.90;;;;;;;;;;4972669;28;20304;-54
2021/12/06 11:06:21;;;;;;;7.77;4.40;;;;;;;;;;4968359;28;20299;-54
2021/12/06 11:08:49;;;;;;;8.13;4.87;;;;;;;;;;4967653;28;20362;-54
2021/12/06 11:11:26;;;;;;;7.83;3.93;;;;;;;;;;4968195;28;20265;-54
2021/12/06 11:13:55;;;;;;;9.07;5.67;;;;;;;;;;4969199;28;20332;-54
2021/12/06 11:16:27;;;;;;;8.37;4.60;;;;;;;;;;4973581;28;20319;-54
2021/12/06 11:18:58;;;;;;;7.53;4.33;;;;;;;;;;4973519;28;20285;-54
2021/12/06 11:21:39;;;;;;;6.70;4.27;;;;;;;;;;4973589;28;20261;-54
2021/12/06 11:24:12;;;;;;;5.53;3.23;;;;;;;;;;4973441;28;20748;-54
2021/12/06 11:26:41;;;;;;;6.97;4.13;;;;;;;;;;4970872;28;20264;-54
2021/12/06 11:29:16;;;;;;;5.73;3.60;;;;;;;;;;4968022;28;20374;-54
2021/12/06 11:31:48;;;;;;;12.20;4.37;;;;;;;;;;4968133;28;20263;-53
2021/12/06 11:34:15;;;;;;;7.97;4.63;;;;;;;;;;4968223;28;20269;-54
2021/12/06 11:36:42;;;;;;;8.40;4.57;;;;;;;;;;4970122;28;20268;-54
2021/12/06 11:39:12;;;;;;;7.33;4.37;;;;;;;;;;4973412;28;20264;-54
2021/12/06 11:41:42;;;;;;;10.23;5.70;;;;;;;;;;4972979;28;20268;-54
2021/12/06 11:44:20;;;;;;;7.33;4.17;;;;;;;;;;4973232;28;20261;-54
2021/12/06 11:46:48;;;;;;;7.83;4.20;;;;;;;;;;4973231;28;20248;-54
2021/12/06 11:49:19;;;;;;;10.17;4.37;;;;;;;;;;4969825;28;20485;-54
2021/12/06 11:51:45;;;;;;;14.10;5.07;;;;;;;;;;4968030;28;20768;-54
2021/12/06 11:54:12;;;;;;;7.83;4.97;;;;;;;;;;4967362;28;20269;-54
2021/12/06 11:56:44;;;;;;;6.37;4.20;;;;;;;;;;4948646;29;20294;-53
2021/12/06 11:59:13;;;;;;;7.63;4.67;;;;;;;;;;4951282;29;20269;-54
2021/12/06 12:01:59;;;;;;;7.17;4.30;;;;;;;;;;4953722;29;20265;-54
2021/12/06 12:04:29;;;;;;;6.40;4.27;;;;;;;;;;4953376;29;20266;-54
2021/12/06 12:07:00;;;;;;;6.00;3.30;;;;;;;;;;4953755;29;20353;-54
2021/12/06 12:09:37;;;;;;;7.53;4.37;;;;;;;;;;4953794;28;20289;-54
2021/12/06 12:12:04;;;;;;;9.07;3.50;;;;;;;;;;4952649;29;20340;-54
2021/12/06 12:14:36;;;;;;;6.20;3.50;;;;;;;;;;4951938;29;20702;-54
2021/12/06 12:17:05;;;;;;;7.43;4.00;;;;;;;;;;4952079;29;20269;-54
2021/12/06 12:19:34;;;;;;;6.77;3.63;;;;;;;;;;4951992;29;20265;-54
2021/12/06 12:22:00;;;;;;;6.40;4.00;;;;;;;;;;4957333;28;20261;-54
2021/12/06 12:24:27;;;;;;;5.73;3.40;;;;;;;;;;4976474;28;20743;-55
2021/12/06 12:27:01;;;;;;;5.40;2.90;;;;;;;;;;4976506;28;20253;-54
2021/12/06 12:29:28;;;;;;;9.97;4.00;;;;;;;;;;4976284;28;20383;-54
2021/12/06 12:32:00;;;;;;;8.50;4.87;;;;;;;;;;4976542;28;20256;-54
2021/12/06 12:34:28;;;;;;;6.83;4.00;;;;;;;;;;4971087;28;20623;-54
2021/12/06 12:36:55;;;;;;;10.00;4.93;;;;;;;;;;4970905;28;20287;-54
2021/12/06 12:39:23;;;;;;;6.63;3.87;;;;;;;;;;4970688;28;20280;-54
2021/12/06 12:41:58;;;;;;;7.57;4.40;;;;;;;;;;4970692;28;20261;-54
2021/12/06 12:44:39;;;;;;;6.97;4.68;;;;;;;;;;4975769;28;20253;-54
2021/12/06 12:47:13;;;;;;;6.53;3.83;;;;;;;;;;4976196;28;20019;-54
2021/12/06 12:49:44;;;;;;;7.27;3.87;;;;;;;;;;4975811;28;20288;-53
2021/12/06 12:52:10;;;;;;;7.47;4.03;;;;;;;;;;4975961;28;20260;-54
2021/12/06 12:54:42;;;;;;;6.60;3.43;;;;;;;;;;4975275;28;20320;-54
2021/12/06 12:57:16;;;;;;;9.77;4.07;;;;;;;;;;4970793;28;20304;-54
2021/12/06 12:59:43;;;;;;;6.07;3.80;;;;;;;;;;4970502;28;20273;-54
2021/12/06 13:02:14;;;;;;;6.77;3.43;;;;;;;;;;4970567;28;20268;-54
2021/12/06 13:04:56;;;;;;;6.13;3.50;;;;;;;;;;4971081;28;20261;-54
2021/12/06 13:07:24;;;;;;;6.73;3.57;;;;;;;;;;4975956;28;20308;-54
2021/12/06 13:09:52;;;;;;;7.83;4.23;;;;;;;;;;4975780;28;20684;-54
2021/12/06 13:12:19;;;;;;;6.23;3.60;;;;;;;;;;4975518;28;20260;-54
2021/12/06 13:14:50;;;;;;;5.90;3.30;;;;;;;;;;4975414;28;20736;-54
2021/12/06 13:17:29;;;;;;;6.87;4.07;;;;;;;;;;4973678;28;20292;-54
2021/12/06 13:20:11;;;;;;;7.00;3.33;;;;;;;;;;4969902;28;20304;-54
2021/12/06 13:22:46;;;;;;;7.20;3.67;;;;;;;;;;4968934;28;20253;-54
2021/12/06 13:25:14;;;;;;;8.20;4.28;;;;;;;;;;4970125;28;20344;-54
2021/12/06 13:27:41;;;;;;;5.93;3.93;;;;;;;;;;4972633;28;20025;-54
2021/12/06 13:30:17;;;;;;;7.30;4.10;;;;;;;;;;4975531;28;20292;-54
2021/12/06 13:33:03;;;;;;;8.17;4.30;;;;;;;;;;4975160;28;20335;-54
2021/12/06 13:35:39;;;;;;;10.50;4.18;;;;;;;;;;4974987;28;20276;-54
2021/12/06 13:38:09;;;;;;;11.63;4.70;;;;;;;;;;4975243;28;20367;-54
2021/12/06 13:40:59;;;;;;;6.93;4.17;;;;;;;;;;4970884;28;20339;-54
2021/12/06 13:43:30;;;;;;;9.40;5.60;;;;;;;;;;4960030;28;20835;-54
2021/12/06 13:45:58;;;;;;;10.53;5.40;;;;;;;;;;4969636;28;20271;-54
2021/12/06 13:48:26;;;;;;;8.67;5.83;;;;;;;;;;4969224;28;21094;-55
2021/12/06 13:50:54;;;;;;;10.60;6.00;;;;;;;;;;4973645;28;20636;-54
2021/12/06 13:53:31;;;;;;;11.97;6.80;;;;;;;;;;4974910;28;20253;-54
2021/12/06 13:55:59;;;;;;;12.07;7.23;;;;;;;;;;4974763;28;20257;-54
2021/12/06 13:58:27;;;;;;;13.37;6.40;;;;;;;;;;4974708;28;20319;-54
2021/12/06 14:00:54;;;;;;;11.90;6.80;;;;;;;;;;4974380;28;20280;-54
2021/12/06 14:03:28;;;;;;;12.90;7.73;;;;;;;;;;4968369;28;20042;-54
2021/12/06 14:05:56;;;;;;;15.80;8.00;;;;;;;;;;4969419;28;20043;-54
2021/12/06 14:08:24;;;;;;;15.70;8.50;;;;;;;;;;4969154;28;20097;-55
2021/12/06 14:10:55;;;;;;;15.83;7.63;;;;;;;;;;4969060;28;20054;-54
2021/12/06 14:13:24;;;;;;;15.23;8.20;;;;;;;;;;4974423;28;20378;-54
2021/12/06 14:15:54;;;;;;;13.43;8.17;;;;;;;;;;4973563;28;20043;-54
2021/12/06 14:18:24;;;;;;;15.97;9.23;;;;;;;;;;4974243;28;20626;-55
2021/12/06 14:20:53;;;;;;;16.40;9.10;;;;;;;;;;4974353;28;20081;-54
2021/12/06 14:23:22;;;;;;;12.60;8.40;;;;;;;;;;4973552;28;20027;-55
2021/12/06 14:25:50;;;;;;;18.67;9.70;;;;;;;;;;4968749;28;20085;-54
2021/12/06 14:28:20;;;;;;;22.53;10.30;;;;;;;;;;4968258;28;20529;-55
2021/12/06 14:30:47;;;;;;;20.37;10.47;;;;;;;;;;4968806;28;20027;-54
2021/12/06 14:33:14;;;;;;;19.20;11.10;;;;;;;;;;4968945;28;20023;-54
2021/12/06 14:35:43;;;;;;;18.53;9.33;;;;;;;;;;4974056;28;20019;-55
2021/12/06 14:38:11;;;;;;;15.93;8.63;;;;;;;;;;4973936;28;20033;-55
2021/12/06 14:40:38;;;;;;;13.07;7.87;;;;;;;;;;4973973;28;20027;-55
2021/12/06 14:43:13;;;;;;;11.30;7.10;;;;;;;;;;4973541;28;20022;-55
2021/12/06 14:45:40;;;;;;;14.23;7.70;;;;;;;;;;4972798;28;20085;-54
2021/12/06 14:48:11;;;;;;;11.10;7.23;;;;;;;;;;4968230;28;20033;-55
2021/12/06 14:50:48;;;;;;;13.53;7.87;;;;;;;;;;4968465;28;20023;-55
2021/12/06 14:53:18;;;;;;;12.03;6.63;;;;;;;;;;4967760;28;20389;-55
2021/12/06 14:58:21;;;;;;;10.38;7.05;;;;;;;;;;4973915;28;20026;-55
2021/12/06 15:00:51;;;;;;;11.87;7.40;;;;;;;;;;4973664;28;20042;-55
2021/12/06 15:03:18;;;;;;;9.43;6.50;;;;;;;;;;4973776;28;20026;-55